Tsogt-Ovoo, Mongolia
Current Conditions -  °F | °C
As of 10:00 AM on Sunday 26 Oct 2014 (Local Time) from ZMUB Reporting Station
Clear Clear  
Wind Chill: 23°   Ceiling: Unl
Heat Index: 23°   Visibility: 6mi
Dew Point:   Wind: 2mph
Humidity: 39%   Direction: NA
Pressure: 30.39"   Gusts: NA
Location:  44.42°N, 105.32°E
Report Text: ZMUB 260200Z VRB01MPS CAVOK M05/M17 Q1029 NOSIG RMK QFE663.5 34
Loading
Personal Weather Stations






























Interactive Weather Map
Tropical Storm Tracking
New forecast layout! Learn more

10-Day Weather Forecast

Advertisements
Track Severe Weather on mobile